createdAt,value
2019-03-06T00:00:07.160Z,2.63
2019-03-06T00:02:34.554Z,2.50
2019-03-06T00:05:01.947Z,2.70
2019-03-06T00:07:29.422Z,2.87
2019-03-06T00:09:56.802Z,3.40
2019-03-06T00:12:24.321Z,3.27
2019-03-06T00:14:51.700Z,2.70
2019-03-06T00:17:19.263Z,3.60
2019-03-06T00:19:46.656Z,3.00
2019-03-06T00:22:14.075Z,2.90
2019-03-06T00:24:41.466Z,2.60
2019-03-06T00:27:08.875Z,3.13
2019-03-06T00:29:36.262Z,3.27
2019-03-06T00:32:03.750Z,2.77
2019-03-06T00:34:31.134Z,3.07
2019-03-06T00:36:58.539Z,2.60
2019-03-06T00:39:27.760Z,3.00
2019-03-06T00:41:55.179Z,2.90
2019-03-06T00:44:22.559Z,3.30
2019-03-06T00:46:49.984Z,2.40
2019-03-06T00:49:17.358Z,2.77
2019-03-06T00:51:44.772Z,2.60
2019-03-06T00:54:12.158Z,2.30
2019-03-06T00:56:39.788Z,2.17
2019-03-06T00:59:07.250Z,2.47
2019-03-06T01:01:34.654Z,2.03
2019-03-06T01:04:02.115Z,2.57
2019-03-06T01:06:29.525Z,2.20
2019-03-06T01:08:56.915Z,2.03
2019-03-06T01:11:24.400Z,2.20
2019-03-06T01:13:51.854Z,2.63
2019-03-06T01:16:19.279Z,2.20
2019-03-06T01:18:46.668Z,2.40
2019-03-06T01:21:14.254Z,1.90
2019-03-06T01:23:41.642Z,1.90
2019-03-06T01:26:09.132Z,2.27
2019-03-06T01:28:36.520Z,2.17
2019-03-06T01:31:04.105Z,2.40
2019-03-06T01:33:36.256Z,2.47
2019-03-06T01:36:05.255Z,2.53
2019-03-06T01:38:37.237Z,2.43
2019-03-06T01:41:06.329Z,2.73
2019-03-06T01:43:41.318Z,2.10
2019-03-06T01:46:08.710Z,2.50
2019-03-06T01:48:36.121Z,2.43
2019-03-06T01:51:03.574Z,2.53
2019-03-06T01:53:30.995Z,1.83
2019-03-06T01:55:58.384Z,2.10
2019-03-06T01:58:25.859Z,2.17
2019-03-06T02:00:54.419Z,1.93
2019-03-06T02:03:21.901Z,1.77
2019-03-06T02:05:49.357Z,2.00
2019-03-06T02:08:16.772Z,2.47
2019-03-06T02:10:44.158Z,2.22
2019-03-06T02:13:11.643Z,2.40
2019-03-06T02:15:39.038Z,2.13
2019-03-06T02:18:06.451Z,2.47
2019-03-06T02:20:33.838Z,2.93
2019-03-06T02:23:01.660Z,2.47
2019-03-06T02:25:29.334Z,3.27
2019-03-06T02:27:56.746Z,2.60
2019-03-06T02:30:27.551Z,2.17
2019-03-06T02:32:54.977Z,2.43
2019-03-06T02:35:22.363Z,1.80
2019-03-06T02:37:49.841Z,3.03
2019-03-06T02:40:17.230Z,2.90
2019-03-06T02:42:44.647Z,2.27
2019-03-06T02:45:19.020Z,2.03
2019-03-06T02:47:46.457Z,2.20
2019-03-06T02:50:14.709Z,2.37
2019-03-06T02:52:42.131Z,2.60
2019-03-06T02:55:10.487Z,3.37
2019-03-06T02:57:39.607Z,2.70
2019-03-06T03:00:24.858Z,2.27
2019-03-06T03:02:54.023Z,2.60
2019-03-06T03:05:23.034Z,2.10
2019-03-06T03:07:50.452Z,2.70
2019-03-06T03:10:17.843Z,2.40
2019-03-06T03:12:45.272Z,2.00
2019-03-06T03:15:13.027Z,2.80
2019-03-06T03:17:40.439Z,2.80
2019-03-06T03:20:08.198Z,2.10
2019-03-06T03:22:35.689Z,2.27
2019-03-06T03:25:04.510Z,2.27
2019-03-06T03:27:31.967Z,2.40
2019-03-06T03:29:59.584Z,2.20
2019-03-06T03:32:26.970Z,2.20
2019-03-06T03:34:54.408Z,2.40
2019-03-06T03:37:21.772Z,2.67
2019-03-06T03:39:49.185Z,2.60
2019-03-06T03:42:16.842Z,3.00
2019-03-06T03:44:44.560Z,2.73
2019-03-06T03:47:11.952Z,2.67
2019-03-06T03:49:39.361Z,2.60
2019-03-06T03:52:06.749Z,2.67
2019-03-06T03:54:34.163Z,2.33
2019-03-06T03:57:01.561Z,2.90
2019-03-06T03:59:29.174Z,2.83
2019-03-06T04:01:56.561Z,2.97
2019-03-06T04:04:23.977Z,2.27
2019-03-06T04:06:51.436Z,2.77
2019-03-06T04:09:18.843Z,2.73
2019-03-06T04:11:46.227Z,3.10
2019-03-06T04:14:13.749Z,2.60
2019-03-06T04:16:41.129Z,2.43
2019-03-06T04:19:08.541Z,2.97
2019-03-06T04:21:35.931Z,2.67
2019-03-06T04:24:03.361Z,2.60
2019-03-06T04:26:30.817Z,2.40
2019-03-06T04:28:58.421Z,2.50
2019-03-06T04:31:25.805Z,2.53
2019-03-06T04:33:53.223Z,2.63
2019-03-06T04:36:20.619Z,3.40
2019-03-06T04:38:47.998Z,3.27
2019-03-06T04:41:15.415Z,3.23
2019-03-06T04:43:42.805Z,2.77
2019-03-06T04:46:10.221Z,2.87
2019-03-06T04:48:37.615Z,2.33
2019-03-06T04:51:05.029Z,2.90
2019-03-06T04:53:32.416Z,2.90
2019-03-06T04:55:59.842Z,3.20
2019-03-06T04:58:27.237Z,2.70
2019-03-06T05:00:54.660Z,2.87
2019-03-06T05:03:22.041Z,3.30
2019-03-06T05:05:49.456Z,2.27
2019-03-06T05:08:16.843Z,3.40
2019-03-06T05:10:44.355Z,2.72
2019-03-06T05:13:11.744Z,2.40
2019-03-06T05:15:39.154Z,3.00
2019-03-06T05:18:11.134Z,3.13
2019-03-06T05:20:38.545Z,2.60
2019-03-06T05:23:05.930Z,3.20
2019-03-06T05:25:33.356Z,3.10
2019-03-06T05:28:00.740Z,2.87
2019-03-06T05:30:29.818Z,2.70
2019-03-06T05:33:01.662Z,2.67
2019-03-06T05:35:39.718Z,2.43
2019-03-06T05:38:11.193Z,2.40
2019-03-06T05:40:38.619Z,2.93
2019-03-06T05:43:06.076Z,2.63
2019-03-06T05:45:33.574Z,3.20
2019-03-06T05:48:01.179Z,3.80
2019-03-06T05:50:28.602Z,2.63
2019-03-06T05:52:56.016Z,4.10
2019-03-06T05:55:23.427Z,2.80
2019-03-06T05:57:50.849Z,3.27
2019-03-06T06:00:22.875Z,2.63
2019-03-06T06:02:50.599Z,3.00
2019-03-06T06:05:17.970Z,2.43
2019-03-06T06:07:45.616Z,3.00
2019-03-06T06:10:13.818Z,3.03
2019-03-06T06:12:41.345Z,3.20
2019-03-06T06:15:12.468Z,3.20
2019-03-06T06:17:54.106Z,2.53
2019-03-06T06:20:40.367Z,3.20
2019-03-06T06:23:29.134Z,4.00
2019-03-06T06:26:00.994Z,3.30
2019-03-06T06:28:45.661Z,3.27
2019-03-06T06:31:22.730Z,3.27
2019-03-06T06:33:55.519Z,2.73
2019-03-06T06:36:30.935Z,3.43
2019-03-06T06:42:07.160Z,3.05
2019-03-06T06:44:36.948Z,3.27
2019-03-06T06:47:25.829Z,2.70
2019-03-06T06:49:53.658Z,2.90
2019-03-06T06:52:33.810Z,3.40
2019-03-06T06:55:29.333Z,3.30
2019-03-06T06:58:07.513Z,8.33
2019-03-06T07:01:03.962Z,5.10
2019-03-06T07:03:53.561Z,3.50
2019-03-06T07:06:47.342Z,3.80
2019-03-06T07:09:23.718Z,3.13
2019-03-06T07:12:25.395Z,3.23
2019-03-06T07:15:23.232Z,3.60
2019-03-06T07:18:13.628Z,3.27
2019-03-06T07:21:08.223Z,3.00
2019-03-06T07:24:04.044Z,3.23
2019-03-06T07:26:35.536Z,3.60
2019-03-06T07:29:28.362Z,3.70
2019-03-06T07:32:14.777Z,2.90
2019-03-06T07:34:48.711Z,3.50
2019-03-06T07:37:32.496Z,3.27
2019-03-06T07:40:02.291Z,2.47
2019-03-06T07:43:05.630Z,3.03
2019-03-06T07:45:49.346Z,3.10
2019-03-06T07:48:53.362Z,2.57
2019-03-06T07:51:46.523Z,3.30
2019-03-06T07:54:29.335Z,3.20
2019-03-06T07:57:15.324Z,4.10
2019-03-06T07:59:53.123Z,2.77
2019-03-06T08:05:39.889Z,5.73
2019-03-06T08:08:21.851Z,3.77
2019-03-06T08:11:07.327Z,3.57
2019-03-06T08:13:40.775Z,3.67
2019-03-06T08:16:33.678Z,3.20
2019-03-06T08:19:16.534Z,3.23
2019-03-06T08:21:59.027Z,3.70
2019-03-06T08:24:36.379Z,3.27
2019-03-06T08:27:22.897Z,4.07
2019-03-06T08:29:55.570Z,3.30
2019-03-06T08:32:37.094Z,3.70
2019-03-06T08:35:09.538Z,2.90
2019-03-06T08:37:47.636Z,3.93
2019-03-06T08:46:17.860Z,2.77
2019-03-06T08:52:26.059Z,4.20
2019-03-06T08:58:42.560Z,3.30
2019-03-06T09:01:40.942Z,3.50
2019-03-06T09:04:35.159Z,3.30
2019-03-06T09:07:40.749Z,3.60
2019-03-06T09:10:22.690Z,4.30
2019-03-06T09:16:18.894Z,4.23
2019-03-06T09:25:09.103Z,4.23
2019-03-06T09:30:22.613Z,3.37
2019-03-06T09:31:02.890Z,3.50
2019-03-06T09:33:06.033Z,4.17
2019-03-06T09:38:48.954Z,3.40
2019-03-06T09:44:55.784Z,3.37
2019-03-06T09:47:33.192Z,3.20
2019-03-06T09:50:30.228Z,3.77
2019-03-06T09:53:22.550Z,3.20
2019-03-06T09:58:50.049Z,2.80
2019-03-06T10:01:28.514Z,4.40
2019-03-06T10:04:28.972Z,3.30
2019-03-06T10:07:05.237Z,2.80
2019-03-06T10:09:58.636Z,2.47
2019-03-06T10:12:25.647Z,2.47
2019-03-06T10:18:35.523Z,2.10
2019-03-06T10:27:03.389Z,2.03
2019-03-06T10:32:34.610Z,1.70
2019-03-06T10:35:20.699Z,2.87
2019-03-06T10:41:00.700Z,1.73
2019-03-06T10:43:34.764Z,2.03
2019-03-06T10:46:06.880Z,1.70
2019-03-06T10:48:59.987Z,2.00
2019-03-06T10:51:45.569Z,1.80
2019-03-06T10:54:20.603Z,1.90
2019-03-06T10:57:12.123Z,3.87
2019-03-06T10:59:52.166Z,3.13
2019-03-06T11:02:21.869Z,1.97
2019-03-06T11:05:15.967Z,2.00
2019-03-06T11:07:30.885Z,1.70
2019-03-06T11:10:01.103Z,1.70
2019-03-06T11:12:45.201Z,1.30
2019-03-06T11:18:24.808Z,1.70
2019-03-06T11:21:14.443Z,1.50
2019-03-06T11:23:55.515Z,1.20
2019-03-06T11:26:37.299Z,1.80
2019-03-06T11:29:35.583Z,1.57
2019-03-06T11:32:12.562Z,1.70
2019-03-06T11:34:58.837Z,2.27
2019-03-06T11:44:16.318Z,1.53
2019-03-06T11:46:24.685Z,1.40
2019-03-06T11:49:11.769Z,1.30
2019-03-06T11:54:45.924Z,1.33
2019-03-06T12:03:03.895Z,1.17
2019-03-06T12:05:57.965Z,1.30
2019-03-06T12:08:32.501Z,1.40
2019-03-06T12:14:20.626Z,1.03
2019-03-06T12:17:02.631Z,1.00
2019-03-06T12:19:43.664Z,0.87
2019-03-06T12:28:28.405Z,1.20
2019-03-06T12:30:59.748Z,1.10
2019-03-06T12:33:41.261Z,1.03
2019-03-06T12:39:06.629Z,1.03
2019-03-06T12:41:44.453Z,1.00
2019-03-06T12:47:23.352Z,1.00
2019-03-06T12:50:07.153Z,1.10
2019-03-06T12:52:38.249Z,1.20
2019-03-06T12:55:35.527Z,1.20
2019-03-06T12:58:25.425Z,0.90
2019-03-06T13:03:49.320Z,0.87
2019-03-06T13:07:38.768Z,1.13
2019-03-06T13:09:00.855Z,1.43
2019-03-06T13:11:30.814Z,1.10
2019-03-06T13:14:17.019Z,1.30
2019-03-06T13:16:55.251Z,1.33
2019-03-06T13:19:28.435Z,0.97
2019-03-06T13:22:11.071Z,1.23
2019-03-06T13:24:41.575Z,1.10
2019-03-06T13:30:08.363Z,1.10
2019-03-06T13:33:21.680Z,1.50
2019-03-06T13:36:20.767Z,1.33
2019-03-06T13:38:54.524Z,1.10
2019-03-06T13:41:16.703Z,1.03
2019-03-06T13:43:53.225Z,1.67
2019-03-06T13:46:34.760Z,1.70
2019-03-06T13:49:17.678Z,1.20
2019-03-06T13:51:53.635Z,1.07
2019-03-06T13:54:29.778Z,0.83
2019-03-06T13:56:57.549Z,1.00
2019-03-06T13:59:28.439Z,1.07
2019-03-06T14:01:57.969Z,1.20
2019-03-06T14:04:30.905Z,1.00
2019-03-06T14:07:40.122Z,1.23
2019-03-06T14:10:00.294Z,1.07
2019-03-06T14:12:40.583Z,1.00
2019-03-06T14:15:07.575Z,1.10
2019-03-06T14:17:36.895Z,1.40
2019-03-06T14:20:09.220Z,1.43
2019-03-06T14:22:40.073Z,1.07
2019-03-06T14:25:12.597Z,1.40
2019-03-06T14:27:46.097Z,1.50
2019-03-06T14:33:23.908Z,1.00
2019-03-06T14:36:12.668Z,1.23
2019-03-06T14:39:02.483Z,1.03
2019-03-06T14:41:44.840Z,1.13
2019-03-06T14:47:38.034Z,1.00
2019-03-06T14:50:13.749Z,0.80
2019-03-06T14:55:46.066Z,1.43
2019-03-06T14:58:59.113Z,1.00
2019-03-06T15:01:08.124Z,1.00
2019-03-06T15:03:58.211Z,1.17
2019-03-06T15:06:29.258Z,1.80
2019-03-06T15:09:07.918Z,1.20
2019-03-06T15:12:05.129Z,1.40
2019-03-06T15:14:36.180Z,1.60
2019-03-06T15:17:05.742Z,1.47
2019-03-06T15:19:33.404Z,1.03
2019-03-06T15:22:26.389Z,1.20
2019-03-06T15:27:45.263Z,1.27
2019-03-06T15:30:14.296Z,3.83
2019-03-06T15:32:44.720Z,3.90
2019-03-06T15:38:12.774Z,0.97
2019-03-06T15:40:50.585Z,1.20
2019-03-06T15:43:24.180Z,1.30
2019-03-06T15:45:58.287Z,1.87
2019-03-06T15:48:32.695Z,1.43
2019-03-06T15:51:08.676Z,1.23
2019-03-06T15:56:38.784Z,1.23
2019-03-06T15:59:28.024Z,1.73
2019-03-06T16:02:19.185Z,1.43
2019-03-06T16:04:49.090Z,1.60
2019-03-06T16:07:37.545Z,1.40
2019-03-06T16:10:08.746Z,1.70
2019-03-06T16:12:48.639Z,2.17
2019-03-06T16:15:26.245Z,1.40
2019-03-06T16:18:01.479Z,1.57
2019-03-06T16:20:29.050Z,1.77
2019-03-06T16:22:56.544Z,1.43
2019-03-06T16:25:40.459Z,1.50
2019-03-06T16:28:16.760Z,1.93
2019-03-06T16:30:51.388Z,1.50
2019-03-06T16:33:23.746Z,1.63
2019-03-06T16:36:08.961Z,2.40
2019-03-06T16:38:41.541Z,1.30
2019-03-06T16:41:16.307Z,1.83
2019-03-06T16:43:52.968Z,1.70
2019-03-06T16:46:31.897Z,2.43
2019-03-06T16:49:03.238Z,1.93
2019-03-06T16:51:41.837Z,1.93
2019-03-06T16:54:22.711Z,2.00
2019-03-06T16:56:50.437Z,1.60
2019-03-06T16:59:29.011Z,2.60
2019-03-06T17:02:06.165Z,4.70
2019-03-06T17:04:45.141Z,2.77
2019-03-06T17:07:17.442Z,2.30
2019-03-06T17:09:53.581Z,1.97
2019-03-06T17:12:25.896Z,2.10
2019-03-06T17:14:57.164Z,2.23
2019-03-06T17:17:30.747Z,1.60
2019-03-06T17:20:01.878Z,2.10
2019-03-06T17:25:42.323Z,2.40
2019-03-06T17:28:23.530Z,2.57
2019-03-06T17:30:59.154Z,2.43
2019-03-06T17:36:35.358Z,2.40
2019-03-06T17:39:14.204Z,2.40
2019-03-06T17:41:55.116Z,2.80
2019-03-06T17:44:40.225Z,2.83
2019-03-06T17:47:14.849Z,2.80
2019-03-06T17:49:48.964Z,3.40
2019-03-06T17:52:21.043Z,2.67
2019-03-06T17:54:49.627Z,3.33
2019-03-06T17:57:25.578Z,2.67
2019-03-06T17:59:59.816Z,3.47
2019-03-06T18:02:43.741Z,2.40
2019-03-06T18:05:33.199Z,3.30
2019-03-06T18:08:05.211Z,3.60
2019-03-06T18:10:41.202Z,2.67
2019-03-06T18:13:21.185Z,3.20
2019-03-06T18:19:06.889Z,2.73
2019-03-06T18:21:49.703Z,3.20
2019-03-06T18:24:18.694Z,3.50
2019-03-06T18:27:03.353Z,2.60
2019-03-06T18:31:19.155Z,3.60
2019-03-06T18:32:20.769Z,3.40
2019-03-06T18:38:00.152Z,4.33
2019-03-06T18:40:32.742Z,3.90
2019-03-06T18:43:08.583Z,3.50
2019-03-06T18:46:10.005Z,4.13
2019-03-06T18:48:32.785Z,3.90
2019-03-06T18:51:07.862Z,3.87
2019-03-06T18:53:58.314Z,3.90
2019-03-06T18:56:33.637Z,4.13
2019-03-06T18:59:20.177Z,4.03
2019-03-06T19:01:58.068Z,3.90
2019-03-06T19:04:57.043Z,4.10
2019-03-06T19:07:17.857Z,2.80
2019-03-06T19:09:50.560Z,3.73
2019-03-06T19:12:22.237Z,3.83
2019-03-06T19:15:04.514Z,3.13
2019-03-06T19:17:41.435Z,3.63
2019-03-06T19:20:17.551Z,3.77
2019-03-06T19:23:03.859Z,3.30
2019-03-06T19:25:33.544Z,3.17
2019-03-06T19:28:03.866Z,2.77
2019-03-06T19:30:34.987Z,3.20
2019-03-06T19:33:16.292Z,3.10
2019-03-06T19:35:46.165Z,6.87
2019-03-06T19:38:24.110Z,2.77
2019-03-06T19:41:13.222Z,2.52
2019-03-06T19:43:47.480Z,3.80
2019-03-06T19:46:20.111Z,3.50
2019-03-06T19:49:06.464Z,2.90
2019-03-06T19:51:51.524Z,2.83
2019-03-06T19:54:18.159Z,3.43
2019-03-06T19:56:52.756Z,2.80
2019-03-06T19:59:36.147Z,3.00
2019-03-06T20:02:30.573Z,3.73
2019-03-06T20:05:19.923Z,3.40
2019-03-06T20:08:00.618Z,4.30
2019-03-06T20:10:42.265Z,3.90
2019-03-06T20:13:11.243Z,3.43
2019-03-06T20:15:43.237Z,3.00
2019-03-06T20:18:22.839Z,3.00
2019-03-06T20:20:59.185Z,3.80
2019-03-06T20:23:36.604Z,3.63
2019-03-06T20:26:14.709Z,3.80
2019-03-06T20:28:50.878Z,3.57
2019-03-06T20:31:39.484Z,4.10
2019-03-06T20:34:11.291Z,4.43
2019-03-06T20:36:42.244Z,3.77
2019-03-06T20:39:17.478Z,3.53
2019-03-06T20:41:49.920Z,3.00
2019-03-06T20:44:32.206Z,3.90
2019-03-06T20:47:12.897Z,3.17
2019-03-06T20:49:53.336Z,3.23
2019-03-06T20:55:20.009Z,3.67
2019-03-06T20:58:13.744Z,3.67
2019-03-06T21:00:49.331Z,2.97
2019-03-06T21:03:24.245Z,3.47
2019-03-06T21:06:04.213Z,3.43
2019-03-06T21:08:42.319Z,3.47
2019-03-06T21:11:13.646Z,3.83
2019-03-06T21:13:57.259Z,3.77
2019-03-06T21:16:31.977Z,3.40
2019-03-06T21:19:12.360Z,3.77
2019-03-06T21:21:56.026Z,3.77
2019-03-06T21:24:33.583Z,3.30
2019-03-06T21:27:12.738Z,3.60
2019-03-06T21:29:47.795Z,3.50
2019-03-06T21:32:21.787Z,4.10
2019-03-06T21:35:15.210Z,3.70
2019-03-06T21:37:43.438Z,3.60
2019-03-06T21:40:14.886Z,3.23
2019-03-06T21:42:52.973Z,3.47
2019-03-06T21:45:21.767Z,4.20
2019-03-06T21:48:05.108Z,4.10
2019-03-06T21:50:50.235Z,3.43
2019-03-06T21:53:32.583Z,4.00
2019-03-06T21:56:07.209Z,4.53
2019-03-06T21:58:39.417Z,3.40
2019-03-06T22:01:36.222Z,3.80
2019-03-06T22:04:24.546Z,4.10
2019-03-06T22:06:43.162Z,4.30
2019-03-06T22:09:11.999Z,3.37
2019-03-06T22:11:39.601Z,4.10
2019-03-06T22:14:09.941Z,4.57
2019-03-06T22:16:39.822Z,3.90
2019-03-06T22:19:08.086Z,4.20
2019-03-06T22:21:37.054Z,3.93
2019-03-06T22:24:04.703Z,4.47
2019-03-06T22:26:32.169Z,3.70
2019-03-06T22:28:59.647Z,4.10
2019-03-06T22:31:26.997Z,3.13
2019-03-06T22:33:54.467Z,3.40
2019-03-06T22:36:21.902Z,3.80
2019-03-06T22:38:49.392Z,3.80
2019-03-06T22:41:16.821Z,3.67
2019-03-06T22:43:44.274Z,3.87
2019-03-06T22:46:11.780Z,3.53
2019-03-06T22:48:39.187Z,3.77
2019-03-06T22:51:06.735Z,3.57
2019-03-06T22:53:34.093Z,3.03
2019-03-06T22:56:01.506Z,3.60
2019-03-06T22:58:29.028Z,3.63
2019-03-06T23:00:58.785Z,3.70
2019-03-06T23:03:26.455Z,3.70
2019-03-06T23:05:53.953Z,4.07
2019-03-06T23:08:21.417Z,4.43
2019-03-06T23:10:48.901Z,3.43
2019-03-06T23:13:16.398Z,3.73
2019-03-06T23:15:43.899Z,4.17
2019-03-06T23:18:11.390Z,3.50
2019-03-06T23:20:38.805Z,4.47
2019-03-06T23:23:06.194Z,3.77
2019-03-06T23:25:33.607Z,3.43
2019-03-06T23:28:01.071Z,4.20
2019-03-06T23:30:28.695Z,3.30
2019-03-06T23:32:56.087Z,3.30
2019-03-06T23:35:23.505Z,3.13
2019-03-06T23:37:51.787Z,4.33
2019-03-06T23:40:19.273Z,4.40
2019-03-06T23:42:48.048Z,3.60
2019-03-06T23:45:15.758Z,4.03
2019-03-06T23:47:43.153Z,3.93
2019-03-06T23:50:11.334Z,3.33
2019-03-06T23:52:56.502Z,3.83
2019-03-06T23:55:23.984Z,4.77
2019-03-06T23:57:51.362Z,4.43
